Time;durP1;ratioP1;P1;durP2;ratioP2;P2;SDS_P1;SDS_P2;PMS_P1;PMS_P2;Temp;Humidity;BMP_temperature;BMP_pressure;BME280_temperature;BME280_humidity;BME280_pressure;Samples;Min_cycle;Max_cycle;Signal;HPM_P1;HPM_P2
2023/04/03 00:02:07;;;;;;;2.83;1.08;;;3.20;99.90;;;;;;5072393;28;20124;-79
2023/04/03 00:04:33;;;;;;;1.38;1.27;;;3.20;99.90;;;;;;5071099;28;20079;-78
2023/04/03 00:06:59;;;;;;;1.35;0.82;;;3.70;99.90;;;;;;5072394;28;20130;-78
2023/04/03 00:09:25;;;;;;;4.47;1.42;;;3.30;99.90;;;;;;5072164;28;20052;-78
2023/04/03 00:11:50;;;;;;;1.15;0.90;;;3.10;99.90;;;;;;5071223;28;20522;-77
2023/04/03 00:14:16;;;;;;;1.23;0.85;;;3.30;99.90;;;;;;5072192;28;20072;-79
2023/04/03 00:16:42;;;;;;;1.77;1.63;;;3.10;99.90;;;;;;5071057;28;20087;-78
2023/04/03 00:19:08;;;;;;;4.13;1.05;;;3.00;99.90;;;;;;5072373;28;20362;-78
2023/04/03 00:21:33;;;;;;;2.97;0.90;;;3.00;99.90;;;;;;5072612;28;20107;-77
2023/04/03 00:23:59;;;;;;;3.20;1.27;;;2.90;99.90;;;;;;5088260;28;20466;-78
2023/04/03 00:26:25;;;;;;;1.35;1.20;;;2.90;99.90;;;;;;5072147;28;20053;-77
2023/04/03 00:28:51;;;;;;;1.40;0.90;;;2.90;99.90;;;;;;5071087;28;20090;-78
2023/04/03 00:31:17;;;;;;;1.25;0.98;;;2.80;99.90;;;;;;5071826;28;20102;-78
2023/04/03 00:33:43;;;;;;;2.00;0.90;;;3.00;99.90;;;;;;5072618;28;20049;-79
2023/04/03 00:36:10;;;;;;;1.08;1.08;;;2.90;99.90;;;;;;5072305;28;20086;-79
2023/04/03 00:38:36;;;;;;;1.52;1.10;;;2.70;99.90;;;;;;5070879;28;20051;-78
2023/04/03 00:41:02;;;;;;;4.13;2.15;;;2.70;99.90;;;;;;5071691;28;20040;-76
2023/04/03 00:43:28;;;;;;;2.20;1.40;;;2.70;99.90;;;;;;5072094;28;20370;-78
2023/04/03 00:45:58;;;;;;;1.33;1.02;;;2.60;99.90;;;;;;5071919;28;20119;-79
2023/04/03 00:48:42;;;;;;;2.22;1.33;;;2.50;99.90;;;;;;5071990;28;20076;-77
2023/04/03 00:51:13;;;;;;;3.05;1.45;;;2.50;99.90;;;;;;5054575;28;20048;-78
2023/04/03 00:53:42;;;;;;;2.28;1.02;;;2.80;99.90;;;;;;5070896;28;20052;-77
2023/04/03 00:56:12;;;;;;;1.88;1.17;;;2.50;99.90;;;;;;5072172;28;20116;-77
2023/04/03 00:58:48;;;;;;;2.15;1.75;;;2.50;99.90;;;;;;5070787;28;20082;-78
2023/04/03 01:01:20;;;;;;;2.67;1.30;;;2.50;99.90;;;;;;5071722;28;20044;-77
2023/04/03 01:03:46;;;;;;;2.25;1.60;;;2.50;99.90;;;;;;5070591;28;20048;-77
2023/04/03 01:06:14;;;;;;;2.53;1.50;;;2.50;99.90;;;;;;5071433;28;20036;-78
2023/04/03 01:08:39;;;;;;;1.85;1.40;;;2.50;99.90;;;;;;5072112;28;20446;-78
2023/04/03 01:11:05;;;;;;;2.80;2.03;;;2.80;99.90;;;;;;5073316;28;20055;-78
2023/04/03 01:13:33;;;;;;;3.35;1.50;;;2.50;99.90;;;;;;5075288;28;20051;-78
2023/04/03 01:16:05;;;;;;;1.88;1.27;;;2.50;99.90;;;;;;5075082;28;20040;-78
2023/04/03 01:18:31;;;;;;;5.72;1.95;;;2.50;99.90;;;;;;5075120;28;20083;-78
2023/04/03 01:21:26;;;;;;;2.05;1.42;;;2.40;99.90;;;;;;5074105;28;20044;-79
2023/04/03 01:24:30;;;;;;;2.40;1.90;;;2.40;99.90;;;;;;5074943;28;20053;-79
2023/04/03 01:26:55;;;;;;;2.10;1.40;;;2.30;99.90;;;;;;5075344;28;20056;-79
2023/04/03 01:29:21;;;;;;;2.75;1.60;;;2.60;99.90;;;;;;5074945;28;20472;-79
2023/04/03 01:31:51;;;;;;;2.10;1.40;;;2.20;99.90;;;;;;5073509;28;20055;-77
2023/04/03 01:34:16;;;;;;;3.28;1.40;;;2.20;99.90;;;;;;5074971;28;20051;-78
2023/04/03 01:36:42;;;;;;;1.60;1.05;;;2.30;99.90;;;;;;5074960;28;20064;-78
2023/04/03 01:39:08;;;;;;;3.38;1.60;;;2.40;99.90;;;;;;5075100;28;20063;-77
2023/04/03 01:41:34;;;;;;;3.42;1.58;;;2.30;99.90;;;;;;5074959;28;20378;-79
2023/04/03 01:43:59;;;;;;;2.75;1.73;;;2.30;99.90;;;;;;5075135;28;20051;-79
2023/04/03 01:46:25;;;;;;;4.38;1.58;;;2.30;99.90;;;;;;5074611;28;20036;-79
2023/04/03 01:48:51;;;;;;;4.75;1.38;;;2.30;99.90;;;;;;5075156;28;20056;-79
2023/04/03 01:51:17;;;;;;;3.85;1.65;;;2.30;99.90;;;;;;5074613;28;20507;-79
2023/04/03 01:53:43;;;;;;;1.35;1.25;;;2.30;99.90;;;;;;5073469;28;20048;-79
2023/04/03 01:56:08;;;;;;;2.38;1.42;;;2.30;99.90;;;;;;5074672;28;20119;-78
2023/04/03 01:58:34;;;;;;;4.35;1.90;;;2.30;99.90;;;;;;5074833;28;20482;-78
2023/04/03 02:01:00;;;;;;;2.40;1.90;;;2.40;99.90;;;;;;5074343;28;20048;-77
2023/04/03 02:03:26;;;;;;;4.40;1.48;;;2.50;99.90;;;;;;5073846;28;20067;-78
2023/04/03 02:05:51;;;;;;;2.10;1.30;;;2.30;99.90;;;;;;5074436;28;20049;-78
2023/04/03 02:08:20;;;;;;;3.55;1.42;;;2.30;99.90;;;;;;5074420;28;20097;-77
2023/04/03 02:10:50;;;;;;;1.83;1.73;;;2.30;99.90;;;;;;5074078;28;20048;-78
2023/04/03 02:13:16;;;;;;;4.82;1.52;;;2.90;99.90;;;;;;5073040;28;20048;-78
2023/04/03 02:15:42;;;;;;;2.10;1.48;;;2.30;99.90;;;;;;5073893;28;20041;-78
2023/04/03 02:18:08;;;;;;;3.08;1.67;;;2.30;99.90;;;;;;5074915;28;20113;-78
2023/04/03 02:20:34;;;;;;;4.82;2.13;;;3.00;99.90;;;;;;5074638;28;20073;-78
2023/04/03 02:23:00;;;;;;;1.80;1.70;;;2.30;99.90;;;;;;5073300;28;20048;-78
2023/04/03 02:25:26;;;;;;;2.38;1.70;;;2.60;99.90;;;;;;5074219;28;20075;-78
2023/04/03 02:27:51;;;;;;;3.67;1.65;;;2.00;99.90;;;;;;5074756;28;20465;-79
2023/04/03 02:30:17;;;;;;;3.80;2.00;;;1.80;99.90;;;;;;5090627;28;20057;-78
2023/04/03 02:32:44;;;;;;;1.98;1.75;;;1.70;99.90;;;;;;5074986;28;20064;-78
2023/04/03 02:35:11;;;;;;;3.13;1.60;;;2.30;99.90;;;;;;5090099;28;20052;-78
2023/04/03 02:37:37;;;;;;;3.38;2.00;;;1.80;99.90;;;;;;5074430;28;20377;-78
2023/04/03 02:40:03;;;;;;;3.63;1.83;;;2.40;99.90;;;;;;5074241;28;20048;-78
2023/04/03 02:42:29;;;;;;;4.00;2.13;;;1.90;99.90;;;;;;5074142;28;20048;-78
2023/04/03 02:44:55;;;;;;;3.25;1.98;;;3.00;99.90;;;;;;5073610;28;20044;-79
2023/04/03 02:47:21;;;;;;;2.22;1.45;;;2.00;99.90;;;;;;5073652;28;20500;-78
2023/04/03 02:49:46;;;;;;;4.15;2.25;;;2.00;99.90;;;;;;5073524;28;20044;-78
2023/04/03 02:52:13;;;;;;;3.47;1.88;;;2.30;99.90;;;;;;5089139;28;20044;-78
2023/04/03 02:54:39;;;;;;;3.25;1.95;;;2.20;99.90;;;;;;5073532;28;20048;-78
2023/04/03 02:57:07;;;;;;;3.95;2.03;;;1.90;99.90;;;;;;5073546;28;20386;-77
2023/04/03 02:59:33;;;;;;;3.17;2.00;;;1.90;99.90;;;;;;5073240;28;20051;-78
2023/04/03 03:01:59;;;;;;;1.85;1.42;;;1.80;99.90;;;;;;5072692;28;20052;-78
2023/04/03 03:04:24;;;;;;;5.20;1.80;;;1.80;99.90;;;;;;5072768;28;20128;-77
2023/04/03 03:06:50;;;;;;;3.15;1.67;;;2.00;99.90;;;;;;5072519;28;20476;-78
2023/04/03 03:09:16;;;;;;;4.90;1.80;;;1.80;99.90;;;;;;5088657;28;20124;-78
2023/04/03 03:11:42;;;;;;;3.85;1.70;;;1.80;99.90;;;;;;5073642;28;20374;-78
2023/04/03 03:14:07;;;;;;;2.13;1.60;;;1.80;99.90;;;;;;5073233;28;20040;-78
2023/04/03 03:16:33;;;;;;;2.75;1.85;;;1.80;99.90;;;;;;5088622;28;20080;-78
2023/04/03 03:18:59;;;;;;;4.38;2.55;;;1.70;99.90;;;;;;5072737;28;20052;-77
2023/04/03 03:21:25;;;;;;;3.38;1.83;;;1.70;99.90;;;;;;5072912;28;20044;-77
2023/04/03 03:23:51;;;;;;;3.40;2.00;;;2.00;99.90;;;;;;5073117;28;20052;-78
2023/04/03 03:26:17;;;;;;;4.80;2.35;;;2.20;99.90;;;;;;5072230;28;20075;-78
2023/04/03 03:28:42;;;;;;;3.53;1.83;;;1.60;99.90;;;;;;5072592;28;20114;-78
2023/04/03 03:31:09;;;;;;;2.15;1.92;;;1.50;99.90;;;;;;5072378;28;20094;-78
2023/04/03 03:33:35;;;;;;;4.68;2.78;;;1.40;99.90;;;;;;5071835;28;20053;-78
2023/04/03 03:36:01;;;;;;;2.95;2.30;;;1.30;99.90;;;;;;5072736;28;20596;-77
2023/04/03 03:38:27;;;;;;;4.38;1.90;;;1.50;99.90;;;;;;5073180;28;20421;-78
2023/04/03 03:40:52;;;;;;;4.97;2.08;;;1.10;99.90;;;;;;5072599;28;20105;-78
2023/04/03 03:43:18;;;;;;;3.38;2.42;;;1.10;99.90;;;;;;5072441;28;20040;-79
2023/04/03 03:45:46;;;;;;;4.10;2.55;;;1.10;99.90;;;;;;5072512;28;20074;-77
2023/04/03 03:48:11;;;;;;;3.28;2.20;;;1.10;99.90;;;;;;5072486;28;20082;-78
2023/04/03 03:50:37;;;;;;;3.00;2.10;;;1.10;99.90;;;;;;5071343;28;20048;-76
2023/04/03 03:53:03;;;;;;;3.72;2.65;;;1.00;99.90;;;;;;5071447;28;20059;-78
2023/04/03 03:55:28;;;;;;;5.15;2.50;;;1.00;99.90;;;;;;5072667;28;20083;-78
2023/04/03 03:57:54;;;;;;;5.03;2.72;;;1.10;99.90;;;;;;5072150;28;20087;-79
2023/04/03 04:00:20;;;;;;;3.85;2.60;;;1.00;99.90;;;;;;5072400;28;20126;-79
2023/04/03 04:02:46;;;;;;;4.60;2.63;;;1.00;99.90;;;;;;5072815;28;20044;-77
2023/04/03 04:05:12;;;;;;;3.75;2.53;;;1.10;99.90;;;;;;5072756;28;20047;-77
2023/04/03 04:07:37;;;;;;;9.13;4.30;;;1.10;99.90;;;;;;5072604;28;20052;-79
2023/04/03 04:10:04;;;;;;;5.50;2.95;;;1.10;99.90;;;;;;5072667;28;20052;-79
2023/04/03 04:12:30;;;;;;;5.13;2.75;;;1.00;99.90;;;;;;5072267;28;20102;-79
2023/04/03 04:14:55;;;;;;;2.97;2.22;;;1.00;99.90;;;;;;5072131;28;20044;-79
2023/04/03 04:17:21;;;;;;;3.03;2.15;;;1.10;99.90;;;;;;5072188;28;20063;-78
2023/04/03 04:19:47;;;;;;;6.47;1.95;;;0.80;99.90;;;;;;5072589;28;20399;-79
2023/04/03 04:22:13;;;;;;;4.25;1.90;;;1.30;99.90;;;;;;5072824;28;20462;-78
2023/04/03 04:24:38;;;;;;;4.82;2.78;;;1.80;99.90;;;;;;5072191;28;20115;-79
2023/04/03 04:27:04;;;;;;;3.17;2.33;;;0.80;99.90;;;;;;5071580;28;20085;-79
2023/04/03 04:29:35;;;;;;;2.47;2.08;;;0.80;99.90;;;;;;5087773;28;20080;-78
2023/04/03 04:32:01;;;;;;;4.57;2.40;;;0.80;99.90;;;;;;5087466;28;20044;-79
2023/04/03 04:34:26;;;;;;;4.25;2.50;;;1.30;99.90;;;;;;5072273;28;20133;-77
2023/04/03 04:36:52;;;;;;;3.72;2.30;;;0.80;99.90;;;;;;5087466;28;20143;-77
2023/04/03 04:39:17;;;;;;;4.25;2.88;;;0.80;99.90;;;;;;5070950;28;20098;-79
2023/04/03 04:41:43;;;;;;;5.63;2.33;;;0.80;99.90;;;;;;5071947;28;20040;-79
2023/04/03 04:44:09;;;;;;;3.45;2.15;;;0.90;99.90;;;;;;5072667;28;20044;-79
2023/04/03 04:46:35;;;;;;;4.72;2.85;;;0.90;99.90;;;;;;5075855;28;20045;-78
2023/04/03 04:49:01;;;;;;;3.92;2.50;;;0.80;99.90;;;;;;5108689;28;20143;-76
2023/04/03 04:51:26;;;;;;;3.53;2.50;;;1.00;99.90;;;;;;5075626;28;20045;-78
2023/04/03 04:53:52;;;;;;;3.47;2.40;;;0.80;99.90;;;;;;5076028;28;20045;-76
2023/04/03 04:56:18;;;;;;;3.63;2.42;;;2.00;99.90;;;;;;5075679;28;20489;-78
2023/04/03 04:58:43;;;;;;;6.18;2.75;;;0.90;99.90;;;;;;5075125;28;20109;-78
2023/04/03 05:01:10;;;;;;;5.88;2.40;;;0.70;99.90;;;;;;5075905;28;20040;-76
2023/04/03 05:03:36;;;;;;;3.35;2.70;;;0.70;99.90;;;;;;5090787;28;20109;-78
2023/04/03 05:06:02;;;;;;;6.82;3.42;;;0.70;99.90;;;;;;5074272;28;20056;-79
2023/04/03 05:08:28;;;;;;;3.72;2.42;;;0.70;99.90;;;;;;5075388;28;20040;-80
2023/04/03 05:10:54;;;;;;;4.13;2.72;;;0.70;99.90;;;;;;5074342;28;20428;-80
2023/04/03 05:13:20;;;;;;;3.63;3.03;;;0.90;99.90;;;;;;5074913;28;20062;-81
2023/04/03 05:15:46;;;;;;;3.40;2.80;;;0.80;99.90;;;;;;5075578;28;20056;-80
2023/04/03 05:18:12;;;;;;;3.60;2.28;;;0.80;99.90;;;;;;5075015;28;20048;-80
2023/04/03 05:20:37;;;;;;;4.30;2.45;;;0.70;99.90;;;;;;5075334;28;20051;-81
2023/04/03 05:23:04;;;;;;;5.28;3.13;;;1.30;99.90;;;;;;5074945;28;20440;-80
2023/04/03 05:25:29;;;;;;;6.50;2.75;;;0.60;99.90;;;;;;5074070;28;20411;-80
2023/04/03 05:27:55;;;;;;;6.32;3.20;;;0.60;99.90;;;;;;5074375;28;20052;-80
2023/04/03 05:30:21;;;;;;;4.70;3.17;;;1.00;99.90;;;;;;5075111;28;20492;-79
2023/04/03 05:32:47;;;;;;;6.18;3.08;;;2.20;99.90;;;;;;5081436;28;20155;-79
2023/04/03 05:35:13;;;;;;;5.30;3.75;;;0.80;99.90;;;;;;5082865;28;20047;-80
2023/04/03 05:37:39;;;;;;;6.43;3.47;;;0.80;99.90;;;;;;5081522;28;20469;-79
2023/04/03 05:40:05;;;;;;;6.13;3.70;;;-0.10;99.90;;;;;;5079710;28;20474;-79
2023/04/03 05:42:32;;;;;;;5.75;3.63;;;0.80;99.90;;;;;;5078135;28;20048;-80
2023/04/03 05:44:57;;;;;;;4.43;3.53;;;0.80;99.90;;;;;;5075738;28;20073;-79
2023/04/03 05:47:23;;;;;;;6.00;3.53;;;0.80;99.90;;;;;;5075664;28;20078;-81
2023/04/03 05:49:49;;;;;;;7.20;4.00;;;0.80;99.90;;;;;;5075039;28;20052;-79
2023/04/03 05:52:20;;;;;;;3.97;2.70;;;0.90;99.90;;;;;;5074921;28;20056;-77
2023/04/03 05:54:47;;;;;;;7.18;3.42;;;1.50;99.90;;;;;;5074649;28;20480;-80
2023/04/03 05:57:15;;;;;;;4.50;3.75;;;1.20;99.90;;;;;;5073481;28;20166;-79
2023/04/03 05:59:42;;;;;;;6.25;3.47;;;1.00;99.90;;;;;;5073768;28;20049;-80
2023/04/03 06:02:12;;;;;;;6.43;3.95;;;1.10;99.90;;;;;;5074356;28;20119;-80
2023/04/03 06:04:38;;;;;;;7.25;4.07;;;1.10;99.90;;;;;;5074309;28;20068;-78
2023/04/03 06:07:03;;;;;;;4.30;3.13;;;1.10;99.90;;;;;;5073380;28;20478;-78
2023/04/03 06:09:30;;;;;;;4.18;3.10;;;1.20;99.90;;;;;;5089889;28;20070;-79
2023/04/03 06:11:58;;;;;;;6.38;3.58;;;1.40;99.90;;;;;;5073140;28;20106;-80
2023/04/03 06:14:27;;;;;;;6.57;3.30;;;1.90;99.90;;;;;;5074275;28;20067;-79
2023/04/03 06:16:53;;;;;;;4.90;3.42;;;1.30;99.90;;;;;;5073766;28;20481;-77
2023/04/03 06:19:20;;;;;;;6.63;3.47;;;1.60;99.90;;;;;;5089589;28;20545;-79
2023/04/03 06:21:47;;;;;;;5.20;3.67;;;1.40;99.90;;;;;;5072839;28;20052;-79
2023/04/03 06:24:15;;;;;;;6.55;3.75;;;2.10;99.90;;;;;;5074182;28;20055;-76
2023/04/03 06:26:41;;;;;;;4.63;3.72;;;1.50;99.90;;;;;;5073813;28;20048;-77
2023/04/03 06:29:07;;;;;;;7.57;3.92;;;1.60;99.90;;;;;;5089782;28;20048;-79
2023/04/03 06:31:32;;;;;;;6.22;3.55;;;1.60;99.90;;;;;;5073684;28;20504;-80
2023/04/03 06:33:58;;;;;;;6.20;3.47;;;1.70;99.90;;;;;;5073522;28;20044;-81
2023/04/03 06:36:24;;;;;;;5.40;3.05;;;1.90;99.90;;;;;;5073753;28;20041;-81
2023/04/03 06:38:50;;;;;;;4.88;3.30;;;1.80;99.90;;;;;;5074036;28;20056;-80
2023/04/03 06:41:17;;;;;;;4.80;3.15;;;1.80;99.90;;;;;;5073502;28;20041;-79
2023/04/03 06:43:44;;;;;;;7.95;3.15;;;1.90;99.90;;;;;;5106836;28;20048;-79
2023/04/03 06:46:15;;;;;;;5.28;3.47;;;2.00;99.90;;;;;;5073384;28;20044;-80
2023/04/03 06:48:41;;;;;;;8.20;3.20;;;2.60;99.90;;;;;;5073160;28;20056;-81
2023/04/03 06:51:22;;;;;;;4.97;3.58;;;2.20;99.90;;;;;;5089011;28;20440;-81
2023/04/03 06:53:52;;;;;;;7.28;2.83;;;2.20;99.90;;;;;;5072151;28;20127;-81
2023/04/03 06:56:19;;;;;;;5.28;2.80;;;2.30;99.90;;;;;;5072304;28;20347;-81
2023/04/03 06:58:46;;;;;;;6.60;3.22;;;2.40;99.90;;;;;;5088841;28;20055;-81
2023/04/03 07:01:13;;;;;;;8.25;3.53;;;2.90;99.90;;;;;;5072467;28;20392;-80
2023/04/03 07:03:39;;;;;;;3.80;3.33;;;2.60;99.90;;;;;;5072904;28;20048;-79
2023/04/03 07:06:06;;;;;;;7.05;3.25;;;2.70;99.90;;;;;;5072388;28;20385;-80
2023/04/03 07:08:33;;;;;;;6.13;3.33;;;3.30;99.90;;;;;;5073179;28;20577;-79
2023/04/03 07:10:59;;;;;;;7.15;3.42;;;2.90;99.90;;;;;;5072969;28;20411;-80
2023/04/03 07:13:25;;;;;;;4.20;2.70;;;3.00;99.90;;;;;;5073240;28;20052;-79
2023/04/03 07:15:51;;;;;;;5.40;3.15;;;3.10;99.90;;;;;;5073063;28;20098;-80
2023/04/03 07:18:17;;;;;;;5.95;2.92;;;3.20;99.90;;;;;;5073240;28;20123;-82
2023/04/03 07:20:43;;;;;;;3.90;3.33;;;3.50;99.90;;;;;;5105739;28;20469;-79
2023/04/03 07:23:08;;;;;;;4.28;3.55;;;3.50;99.90;;;;;;5072912;28;20079;-80
2023/04/03 07:25:34;;;;;;;4.65;3.05;;;3.60;99.90;;;;;;5073171;28;20129;-79
2023/04/03 07:28:00;;;;;;;6.18;3.70;;;3.90;99.90;;;;;;5073070;28;20118;-79
2023/04/03 07:30:26;;;;;;;4.55;3.08;;;4.10;99.90;;;;;;5072796;28;20475;-80
2023/04/03 07:32:52;;;;;;;5.72;3.20;;;4.70;99.90;;;;;;5072462;28;20470;-81
2023/04/03 07:35:18;;;;;;;3.72;2.80;;;6.40;99.90;;;;;;5072469;28;20048;-81
2023/04/03 07:37:43;;;;;;;3.40;2.42;;;8.20;99.90;;;;;;5070995;28;20409;-80
2023/04/03 07:40:11;;;;;;;6.80;3.00;;;9.20;99.90;;;;;;5072157;28;20048;-82
2023/04/03 07:42:36;;;;;;;4.47;2.40;;;10.00;99.90;;;;;;5072888;28;20055;-80
2023/04/03 07:45:05;;;;;;;2.53;1.90;;;11.10;99.90;;;;;;5072349;28;20041;-79
2023/04/03 07:47:31;;;;;;;3.10;1.85;;;11.50;99.90;;;;;;5072375;28;20060;-79
2023/04/03 07:49:57;;;;;;;4.30;1.90;;;11.90;99.90;;;;;;5072298;28;20086;-81
2023/04/03 07:52:24;;;;;;;5.10;1.95;;;12.30;99.90;;;;;;5088517;28;20093;-82
2023/04/03 07:54:49;;;;;;;3.17;1.60;;;12.50;99.90;;;;;;5105708;28;20045;-81
2023/04/03 07:57:16;;;;;;;2.20;2.00;;;12.40;98.60;;;;;;5072959;28;20048;-81
2023/04/03 07:59:42;;;;;;;2.30;1.60;;;12.30;97.10;;;;;;5072749;28;20068;-78
2023/04/03 08:02:12;;;;;;;5.07;2.25;;;12.70;98.10;;;;;;5072532;28;20045;-81
2023/04/03 08:04:38;;;;;;;2.50;1.63;;;13.30;98.00;;;;;;5072265;28;20044;-80
2023/04/03 08:07:04;;;;;;;4.13;2.10;;;13.30;97.00;;;;;;5072100;28;20048;-79
2023/04/03 08:09:31;;;;;;;1.58;1.48;;;13.50;95.70;;;;;;5071306;28;20063;-79
2023/04/03 08:11:57;;;;;;;3.47;1.58;;;13.60;95.30;;;;;;5072505;28;20110;-80
2023/04/03 08:14:23;;;;;;;5.88;1.88;;;13.60;94.30;;;;;;5072243;28;20088;-78
2023/04/03 08:16:49;;;;;;;4.10;2.22;;;13.60;94.90;;;;;;5072255;28;20087;-76
2023/04/03 08:19:17;;;;;;;3.10;1.88;;;13.60;94.40;;;;;;5072754;28;20045;-81
2023/04/03 08:21:42;;;;;;;5.80;1.98;;;14.00;94.40;;;;;;5075909;28;20080;-77
2023/04/03 08:24:08;;;;;;;2.10;1.52;;;14.10;93.80;;;;;;5075976;28;20040;-77
2023/04/03 08:26:35;;;;;;;5.00;1.73;;;14.20;92.40;;;;;;5075983;28;20052;-78
2023/04/03 08:29:01;;;;;;;2.33;1.90;;;14.20;92.60;;;;;;5076155;28;20044;-78
2023/04/03 08:31:27;;;;;;;5.03;1.58;;;14.10;92.10;;;;;;5076400;28;20140;-78
2023/04/03 08:33:53;;;;;;;6.43;2.17;;;14.00;92.00;;;;;;5075897;28;20045;-77
2023/04/03 08:36:27;;;;;;;3.08;1.73;;;14.10;91.00;;;;;;5076060;28;20097;-78
2023/04/03 08:38:54;;;;;;;2.20;1.50;;;13.90;89.80;;;;;;5076446;28;20049;-78
2023/04/03 08:41:30;;;;;;;4.75;1.45;;;13.90;90.10;;;;;;5075830;28;20059;-78
2023/04/03 08:44:03;;;;;;;2.25;1.50;;;13.90;89.30;;;;;;5075664;28;20488;-77
2023/04/03 08:46:57;;;;;;;4.50;2.33;;;14.10;89.00;;;;;;5075362;28;20485;-78
2023/04/03 08:49:29;;;;;;;3.80;1.90;;;14.40;90.00;;;;;;5075566;28;20097;-78
2023/04/03 08:51:57;;;;;;;4.72;2.05;;;14.60;90.10;;;;;;5076041;28;20481;-79
2023/04/03 08:54:57;;;;;;;1.88;1.40;;;14.80;88.40;;;;;;5076333;28;20044;-79
2023/04/03 08:57:34;;;;;;;2.33;1.38;;;14.50;81.90;;;;;;5075075;28;20045;-77
2023/04/03 09:00:16;;;;;;;2.33;1.80;;;14.70;84.60;;;;;;5076134;28;20045;-78
2023/04/03 09:02:51;;;;;;;3.95;1.65;;;14.70;86.30;;;;;;5076076;28;20346;-78
2023/04/03 09:05:20;;;;;;;1.73;1.45;;;14.80;87.50;;;;;;5076060;28;20040;-78
2023/04/03 09:08:25;;;;;;;8.30;2.40;;;14.90;85.80;;;;;;5075930;28;20063;-77
2023/04/03 09:11:21;;;;;;;2.95;1.38;;;15.00;81.50;;;;;;5075425;28;20060;-78
2023/04/03 09:14:24;;;;;;;2.67;1.50;;;14.90;83.10;;;;;;5075603;28;20049;-77
2023/04/03 09:16:59;;;;;;;3.50;1.50;;;14.90;84.30;;;;;;5074986;28;20086;-79
2023/04/03 09:19:41;;;;;;;4.18;1.83;;;14.80;85.20;;;;;;5075114;28;20279;-80
2023/04/03 09:22:26;;;;;;;1.40;1.20;;;15.10;85.40;;;;;;5075617;28;20041;-79
2023/04/03 09:25:00;;;;;;;3.20;1.67;;;15.20;83.80;;;;;;5075330;28;20048;-80
2023/04/03 09:27:26;;;;;;;1.73;1.45;;;15.40;83.40;;;;;;5075498;28;20097;-80
2023/04/03 09:29:55;;;;;;;3.00;1.35;;;15.30;83.10;;;;;;5075015;28;20052;-78
2023/04/03 09:32:25;;;;;;;2.67;1.33;;;15.00;82.40;;;;;;5073603;28;20498;-80
2023/04/03 09:34:53;;;;;;;1.17;0.68;;;15.00;82.50;;;;;;5074628;28;20076;-81
2023/04/03 09:37:42;;;;;;;2.58;1.15;;;15.20;79.70;;;;;;5074367;28;20131;-79
2023/04/03 09:40:26;;;;;;;2.70;1.17;;;15.10;76.10;;;;;;5074235;28;20567;-80
2023/04/03 09:42:53;;;;;;;1.35;0.98;;;15.00;73.60;;;;;;5074181;28;20397;-77
2023/04/03 09:45:34;;;;;;;1.98;1.30;;;15.00;74.30;;;;;;5074231;28;20048;-80
2023/04/03 09:48:08;;;;;;;2.70;1.38;;;14.80;71.50;;;;;;5074578;28;20055;-79
2023/04/03 09:50:35;;;;;;;1.25;1.00;;;14.80;73.60;;;;;;5074222;28;20490;-81
2023/04/03 09:53:07;;;;;;;2.97;1.40;;;15.00;76.50;;;;;;5074252;28;20090;-77
2023/04/03 09:55:40;;;;;;;1.75;1.23;;;15.20;75.60;;;;;;5073550;28;20048;-79
2023/04/03 09:58:33;;;;;;;1.48;0.88;;;15.20;76.80;;;;;;5074898;28;20040;-80
2023/04/03 10:01:01;;;;;;;2.53;0.95;;;15.30;74.20;;;;;;5073123;28;20049;-80
2023/04/03 10:03:30;;;;;;;2.85;1.15;;;15.20;77.30;;;;;;5074121;28;20133;-81
2023/04/03 10:05:57;;;;;;;2.55;0.93;;;15.40;76.80;;;;;;5073512;28;20067;-78
2023/04/03 10:08:27;;;;;;;1.30;0.70;;;15.70;75.10;;;;;;5107141;28;20040;-80
2023/04/03 10:11:13;;;;;;;1.30;1.10;;;15.90;76.40;;;;;;5073723;28;20522;-80
2023/04/03 10:13:59;;;;;;;1.13;1.00;;;15.70;68.40;;;;;;5074389;28;20079;-80
2023/04/03 10:16:41;;;;;;;2.22;1.13;;;15.50;69.10;;;;;;5073859;28;20052;-80
2023/04/03 10:19:20;;;;;;;1.10;1.00;;;15.10;68.40;;;;;;5072817;28;20044;-80
2023/04/03 10:21:55;;;;;;;0.77;0.77;;;15.00;64.20;;;;;;5073474;28;20395;-78
2023/04/03 10:24:20;;;;;;;0.75;0.75;;;14.70;69.50;;;;;;5073985;28;20044;-80
2023/04/03 10:26:58;;;;;;;1.67;1.15;;;14.90;71.00;;;;;;5073777;28;20041;-79
2023/04/03 10:29:36;;;;;;;3.83;1.40;;;14.50;69.00;;;;;;5074218;28;20048;-79
2023/04/03 10:32:39;;;;;;;3.15;1.15;;;14.90;68.80;;;;;;5073595;28;20133;-81
2023/04/03 10:35:32;;;;;;;2.17;0.97;;;15.20;70.80;;;;;;5073791;28;20360;-79
2023/04/03 10:38:08;;;;;;;1.95;1.27;;;15.70;64.50;;;;;;5072207;28;20056;-79
2023/04/03 10:40:47;;;;;;;1.58;0.90;;;16.60;73.10;;;;;;5073892;28;20060;-79
2023/04/03 10:43:40;;;;;;;2.15;1.35;;;17.00;69.70;;;;;;5089221;28;20056;-80
2023/04/03 10:46:16;;;;;;;1.23;0.90;;;16.60;63.70;;;;;;5072961;28;20066;-76
2023/04/03 10:49:09;;;;;;;1.17;1.10;;;15.20;65.90;;;;;;5073486;28;20048;-77
2023/04/03 10:51:46;;;;;;;0.98;0.90;;;13.90;61.80;;;;;;5071980;28;20460;-79
2023/04/03 10:54:26;;;;;;;3.00;1.30;;;13.80;69.40;;;;;;5072350;28;20091;-78
2023/04/03 10:57:02;;;;;;;1.25;1.15;;;13.10;68.80;;;;;;5073301;28;20083;-78
2023/04/03 10:59:53;;;;;;;3.78;0.95;;;11.80;69.60;;;;;;5073462;28;20045;-78
2023/04/03 11:02:31;;;;;;;3.47;1.40;;;11.40;69.70;;;;;;5073092;28;20055;-79
2023/04/03 11:05:29;;;;;;;1.25;0.55;;;11.00;70.00;;;;;;5072888;28;20088;-78
2023/04/03 11:07:57;;;;;;;0.80;0.75;;;10.60;65.70;;;;;;5039293;28;20120;-80
2023/04/03 11:10:41;;;;;;;1.75;0.70;;;10.40;69.10;;;;;;5072422;28;20485;-75
2023/04/03 11:13:35;;;;;;;1.85;1.02;;;10.20;66.20;;;;;;5073576;28;20055;-79
2023/04/03 11:16:03;;;;;;;1.58;1.30;;;10.10;65.90;;;;;;5050358;28;20075;-76
2023/04/03 11:18:39;;;;;;;2.75;1.08;;;9.70;65.10;;;;;;5073460;28;20088;-76
2023/04/03 11:21:26;;;;;;;1.70;1.20;;;9.60;67.40;;;;;;5074297;28;20036;-77
2023/04/03 11:23:56;;;;;;;1.08;1.00;;;9.40;64.50;;;;;;5074862;28;20106;-79
2023/04/03 11:26:26;;;;;;;2.67;1.05;;;9.50;70.10;;;;;;5074504;28;20119;-76
2023/04/03 11:29:07;;;;;;;1.88;1.23;;;9.60;70.20;;;;;;5072913;28;20368;-76
2023/04/03 11:32:02;;;;;;;1.35;0.90;;;9.70;67.80;;;;;;5072807;28;20135;-77
2023/04/03 11:34:36;;;;;;;3.83;1.30;;;9.80;68.90;;;;;;5072638;28;20045;-79
2023/04/03 11:37:11;;;;;;;2.95;1.30;;;9.90;68.70;;;;;;5072449;28;20088;-76
2023/04/03 11:39:39;;;;;;;0.95;0.90;;;9.90;69.70;;;;;;5072796;28;20048;-78
2023/04/03 11:42:15;;;;;;;1.27;1.17;;;9.90;70.20;;;;;;5072401;28;20110;-78
2023/04/03 11:44:41;;;;;;;1.52;1.42;;;9.90;69.60;;;;;;5072300;28;20062;-78
2023/04/03 11:47:12;;;;;;;2.15;1.55;;;9.90;69.00;;;;;;5071279;28;20044;-78
2023/04/03 11:50:00;;;;;;;2.00;1.58;;;9.90;68.70;;;;;;5072195;28;20382;-77
2023/04/03 11:52:38;;;;;;;2.65;1.35;;;9.90;68.50;;;;;;5072330;28;20037;-77
2023/04/03 11:55:20;;;;;;;2.50;0.90;;;9.90;68.50;;;;;;5071643;28;20067;-76
2023/04/03 11:58:04;;;;;;;1.23;1.10;;;9.90;67.20;;;;;;5072452;28;20052;-78
2023/04/03 12:00:50;;;;;;;;;;;9.90;67.80;;;;;;5071718;28;20053;-76
2023/04/03 12:03:26;;;;;;;2.45;1.42;;;9.80;67.90;;;;;;5073069;28;19928;-75
2023/04/03 12:06:15;;;;;;;2.67;1.67;;;9.80;67.80;;;;;;5071839;28;20128;-76
2023/04/03 12:08:44;;;;;;;2.47;1.52;;;9.80;69.50;;;;;;5072792;28;20485;-79
2023/04/03 12:11:13;;;;;;;3.08;1.30;;;10.00;69.30;;;;;;5072642;28;20049;-76
2023/04/03 12:14:13;;;;;;;2.03;1.20;;;10.00;71.30;;;;;;5072460;28;20044;-78
2023/04/03 12:16:38;;;;;;;2.83;1.40;;;10.20;70.40;;;;;;5072248;28;20045;-77
2023/04/03 12:19:24;;;;;;;1.60;1.27;;;10.20;69.00;;;;;;5072157;28;20123;-78
2023/04/03 12:21:58;;;;;;;2.42;1.58;;;10.20;69.30;;;;;;5072240;28;20045;-78
2023/04/03 12:24:31;;;;;;;1.92;1.40;;;10.20;69.00;;;;;;5071926;28;20119;-78
2023/04/03 12:26:56;;;;;;;;;;;10.20;69.50;;;;;;5072312;28;20365;-77
2023/04/03 12:29:40;;;;;;;1.25;1.00;;;10.00;69.40;;;;;;5071973;28;19920;-77
2023/04/03 12:32:31;;;;;;;2.42;1.38;;;10.00;70.40;;;;;;5071992;28;20052;-77
2023/04/03 12:35:12;;;;;;;1.58;1.20;;;10.10;70.00;;;;;;5071923;28;20056;-75
2023/04/03 12:38:02;;;;;;;3.15;1.23;;;10.20;68.80;;;;;;5071683;28;20135;-77
2023/04/03 12:40:28;;;;;;;1.75;1.25;;;10.20;67.20;;;;;;5072452;28;20080;-77
2023/04/03 12:42:56;;;;;;;2.65;1.63;;;10.10;68.30;;;;;;5071757;28;20118;-77
2023/04/03 12:45:25;;;;;;;1.90;1.48;;;10.20;67.60;;;;;;5071423;28;20066;-77
2023/04/03 12:47:54;;;;;;;1.50;1.08;;;10.30;68.10;;;;;;5071797;28;20044;-77
2023/04/03 12:50:32;;;;;;;6.47;2.25;;;10.10;69.20;;;;;;5070717;28;20098;-78
2023/04/03 12:53:05;;;;;;;2.22;1.52;;;10.00;69.40;;;;;;5071631;28;20075;-77
2023/04/03 12:55:31;;;;;;;2.88;1.50;;;10.10;69.50;;;;;;5071287;28;20393;-77
2023/04/03 12:57:56;;;;;;;2.97;1.42;;;10.00;69.60;;;;;;5071645;28;20045;-75
2023/04/03 13:00:40;;;;;;;2.45;1.58;;;10.00;71.10;;;;;;5071655;28;20040;-78
2023/04/03 13:03:07;;;;;;;;;;;9.90;69.20;;;;;;5072644;28;20052;-76
2023/04/03 13:05:34;;;;;;;2.45;1.40;;;9.80;68.40;;;;;;5072930;28;19928;-76
2023/04/03 13:08:07;;;;;;;2.22;1.40;;;9.70;70.50;;;;;;5075140;28;20120;-78
2023/04/03 13:10:51;;;;;;;1.77;1.30;;;9.80;68.10;;;;;;5075280;28;20347;-76
2023/04/03 13:13:17;;;;;;;3.78;1.15;;;9.90;70.60;;;;;;5075238;28;20049;-79